Time;durP1;ratioP1;P1;durP2;ratioP2;P2;SDS_P1;SDS_P2;PMS_P1;PMS_P2;Temp;Humidity;BMP_temperature;BMP_pressure;BME280_temperature;BME280_humidity;BME280_pressure;Samples;Min_cycle;Max_cycle;Signal;HPM_P1;HPM_P2
2022/01/01 00:03:31;;;;;;;;;;;18.40;42.80;;;;;;8266658;28;20012;-48
2022/01/01 00:07:33;;;;;;;;;;;18.40;42.80;;;;;;8265820;28;19918;-48
2022/01/01 00:11:33;;;;;;;;;;;18.40;42.80;;;;;;8265960;28;19918;-48
2022/01/01 00:15:34;;;;;;;;;;;18.30;42.70;;;;;;8266062;28;19988;-48
2022/01/01 00:19:34;;;;;;;;;;;18.40;42.80;;;;;;8265550;28;19921;-47
2022/01/01 00:23:35;;;;;;;;;;;18.30;42.70;;;;;;8265575;28;19948;-48
2022/01/01 00:27:35;;;;;;;;;;;18.30;42.70;;;;;;8265739;28;20268;-48
2022/01/01 00:31:36;;;;;;;;;;;18.30;42.70;;;;;;8264601;28;19961;-48
2022/01/01 00:35:36;;;;;;;;;;;18.30;42.70;;;;;;8265480;28;19922;-49
2022/01/01 00:39:37;;;;;;;;;;;18.30;42.70;;;;;;8265648;28;19918;-47
2022/01/01 00:43:37;;;;;;;;;;;18.30;42.60;;;;;;8264716;28;19930;-48
2022/01/01 00:47:38;;;;;;;;;;;18.30;42.60;;;;;;8265328;28;20008;-48
2022/01/01 00:51:38;;;;;;;;;;;18.30;42.70;;;;;;8265251;28;19950;-49
2022/01/01 00:55:38;;;;;;;;;;;18.30;42.60;;;;;;8264582;28;19925;-48
2022/01/01 00:59:39;;;;;;;;;;;18.30;42.70;;;;;;8265115;28;20358;-48
2022/01/01 01:03:39;;;;;;;;;;;18.30;42.60;;;;;;8265276;28;19926;-47
2022/01/01 01:07:40;;;;;;;;;;;18.30;42.60;;;;;;8264540;28;19918;-49
2022/01/01 01:11:44;;;;;;;;;;;18.20;42.60;;;;;;8264747;28;19924;-47
2022/01/01 01:15:44;;;;;;;;;;;18.20;42.60;;;;;;8265049;28;20329;-48
2022/01/01 01:19:45;;;;;;;;;;;18.20;42.60;;;;;;8264487;28;19918;-50
2022/01/01 01:23:47;;;;;;;;;;;18.20;42.60;;;;;;8264556;28;19926;-48
2022/01/01 01:27:49;;;;;;;;;;;18.20;42.60;;;;;;8264667;28;19922;-47
2022/01/01 01:31:50;;;;;;;;;;;18.20;42.60;;;;;;8263972;28;20433;-49
2022/01/01 01:35:50;;;;;;;;;;;18.20;42.60;;;;;;8264598;28;19918;-51
2022/01/01 01:39:51;;;;;;;;;;;18.20;42.60;;;;;;8264772;28;20005;-48
2022/01/01 01:43:53;;;;;;;;;;;18.20;42.50;;;;;;8266466;28;20379;-47
2022/01/01 01:47:54;;;;;;;;;;;18.20;42.60;;;;;;8270801;28;19922;-48
2022/01/01 01:51:54;;;;;;;;;;;18.20;42.50;;;;;;8270439;28;20012;-48
2022/01/01 01:55:57;;;;;;;;;;;18.10;42.40;;;;;;8269744;28;19924;-48
2022/01/01 01:59:57;;;;;;;;;;;18.20;42.50;;;;;;8270360;28;19918;-47
2022/01/01 02:03:58;;;;;;;;;;;18.10;42.50;;;;;;8269674;28;20009;-47
2022/01/01 02:07:58;;;;;;;;;;;18.10;42.50;;;;;;8268339;28;19921;-48
2022/01/01 02:12:01;;;;;;;;;;;18.10;42.40;;;;;;8269664;28;20419;-48
2022/01/01 02:20:25;;;;;;;;;;;18.10;42.40;;;;;;8269343;28;19980;-47
2022/01/01 02:24:26;;;;;;;;;;;18.00;42.40;;;;;;8269902;28;20376;-47
2022/01/01 02:28:27;;;;;;;;;;;18.00;42.40;;;;;;8268786;28;19921;-47
2022/01/01 02:32:27;;;;;;;;;;;18.00;42.40;;;;;;8269002;28;19929;-47
2022/01/01 02:36:29;;;;;;;;;;;18.00;42.40;;;;;;8268937;28;19914;-49
2022/01/01 02:40:29;;;;;;;;;;;18.00;42.40;;;;;;8268556;28;19960;-47
2022/01/01 02:44:30;;;;;;;;;;;18.00;42.40;;;;;;8268584;28;19973;-48
2022/01/01 02:48:30;;;;;;;;;;;18.00;42.40;;;;;;8268521;28;19968;-48
2022/01/01 02:52:31;;;;;;;;;;;18.00;42.40;;;;;;8267962;28;19918;-47
2022/01/01 02:56:32;;;;;;;;;;;18.00;42.40;;;;;;8267975;28;19927;-47
2022/01/01 03:00:32;;;;;;;;;;;18.00;42.40;;;;;;8268447;28;19953;-47
2022/01/01 03:04:33;;;;;;;;;;;18.00;42.50;;;;;;8267844;28;19922;-48
2022/01/01 03:08:33;;;;;;;;;;;18.00;42.50;;;;;;8268055;28;19925;-49
2022/01/01 03:12:34;;;;;;;;;;;17.90;42.40;;;;;;8267703;28;19918;-48
2022/01/01 03:16:34;;;;;;;;;;;17.90;42.40;;;;;;8267305;28;20001;-48
2022/01/01 03:20:34;;;;;;;;;;;17.90;42.40;;;;;;8267674;28;19968;-48
2022/01/01 03:24:35;;;;;;;;;;;17.90;42.40;;;;;;8267639;28;20413;-48
2022/01/01 03:28:35;;;;;;;;;;;17.90;42.40;;;;;;8266877;28;19925;-48
2022/01/01 03:32:36;;;;;;;;;;;17.90;42.40;;;;;;8267157;28;20447;-48
2022/01/01 03:36:36;;;;;;;;;;;17.90;42.40;;;;;;8266996;28;19972;-49
2022/01/01 03:40:37;;;;;;;;;;;17.90;42.40;;;;;;8266629;28;19957;-47
2022/01/01 03:44:37;;;;;;;;;;;17.90;42.40;;;;;;8266836;28;20032;-48
2022/01/01 03:48:38;;;;;;;;;;;17.90;42.40;;;;;;8266767;28;20406;-48
2022/01/01 03:52:42;;;;;;;;;;;17.90;42.40;;;;;;8266076;28;19949;-48
2022/01/01 03:56:42;;;;;;;;;;;17.90;42.40;;;;;;8266606;28;20437;-48
2022/01/01 04:00:43;;;;;;;;;;;17.90;42.40;;;;;;8266522;28;19914;-47
2022/01/01 04:04:43;;;;;;;;;;;17.90;42.40;;;;;;8265483;28;20367;-50
2022/01/01 04:08:44;;;;;;;;;;;17.90;42.40;;;;;;8265767;28;19924;-48
2022/01/01 04:12:44;;;;;;;;;;;17.90;42.40;;;;;;8265878;28;20269;-47
2022/01/01 04:16:47;;;;;;;;;;;17.80;42.40;;;;;;8265335;28;19924;-49
2022/01/01 04:20:47;;;;;;;;;;;17.80;42.40;;;;;;8266113;28;19945;-48
2022/01/01 04:24:48;;;;;;;;;;;17.80;42.40;;;;;;8265701;28;19929;-48
2022/01/01 04:28:48;;;;;;;;;;;17.80;42.40;;;;;;8265091;28;19932;-49
2022/01/01 04:32:48;;;;;;;;;;;17.80;42.40;;;;;;8265691;28;19925;-51
2022/01/01 04:37:13;;;;;;;;;;;17.80;42.50;;;;;;8265478;28;19918;-48
2022/01/01 04:41:12;;;;;;;;;;;17.80;42.50;;;;;;8264794;28;19922;-51
2022/01/01 04:45:13;;;;;;;;;;;17.80;42.50;;;;;;8265213;28;19952;-51
2022/01/01 04:49:13;;;;;;;;;;;17.80;42.40;;;;;;8265314;28;19925;-47
2022/01/01 04:53:17;;;;;;;;;;;17.80;42.50;;;;;;8264669;28;19923;-47
2022/01/01 04:57:17;;;;;;;;;;;17.80;42.40;;;;;;8265208;28;19922;-46
2022/01/01 05:01:19;;;;;;;;;;;17.80;42.50;;;;;;8264792;28;20401;-46
2022/01/01 05:05:19;;;;;;;;;;;17.80;42.50;;;;;;8265128;28;19928;-47
2022/01/01 05:09:20;;;;;;;;;;;17.80;42.50;;;;;;8264342;28;19918;-48
2022/01/01 05:13:20;;;;;;;;;;;17.80;42.40;;;;;;8264503;28;19917;-47
2022/01/01 05:17:21;;;;;;;;;;;17.80;42.50;;;;;;8266849;28;19918;-47
2022/01/01 05:21:21;;;;;;;;;;;17.80;42.40;;;;;;8271487;28;20398;-46
2022/01/01 05:25:22;;;;;;;;;;;17.80;42.60;;;;;;8270780;28;19918;-51
2022/01/01 05:29:22;;;;;;;;;;;17.80;42.50;;;;;;8270937;28;19929;-48
2022/01/01 05:33:22;;;;;;;;;;;17.80;42.40;;;;;;8270954;28;19918;-46
2022/01/01 05:37:23;;;;;;;;;;;17.80;42.40;;;;;;8270237;28;19918;-47
2022/01/01 05:41:23;;;;;;;;;;;17.80;42.50;;;;;;8271039;28;19921;-48
2022/01/01 05:45:24;;;;;;;;;;;17.80;42.50;;;;;;8270811;28;19922;-48
2022/01/01 05:49:24;;;;;;;;;;;17.80;42.60;;;;;;8269936;28;19929;-48
2022/01/01 05:53:25;;;;;;;;;;;17.80;42.50;;;;;;8270270;28;19922;-48
2022/01/01 05:57:25;;;;;;;;;;;17.80;42.50;;;;;;8270153;28;19964;-47
2022/01/01 06:01:27;;;;;;;;;;;17.80;42.50;;;;;;8268922;28;21300;-47
2022/01/01 06:05:28;;;;;;;;;;;17.80;42.40;;;;;;8269791;28;19925;-48
2022/01/01 06:09:29;;;;;;;;;;;17.80;42.50;;;;;;8269721;28;19917;-47
2022/01/01 06:13:29;;;;;;;;;;;17.70;42.40;;;;;;8269466;28;19991;-46
2022/01/01 06:17:30;;;;;;;;;;;17.80;42.50;;;;;;8269855;28;19988;-49
2022/01/01 06:21:30;;;;;;;;;;;17.80;42.50;;;;;;8269492;28;19933;-46
2022/01/01 06:25:31;;;;;;;;;;;17.70;42.40;;;;;;8268834;28;20276;-46
2022/01/01 06:29:31;;;;;;;;;;;17.80;42.40;;;;;;8268379;28;20324;-48
2022/01/01 06:33:31;;;;;;;;;;;17.70;42.40;;;;;;8269293;28;19914;-47
2022/01/01 06:37:32;;;;;;;;;;;17.80;42.50;;;;;;8268698;28;20046;-47
2022/01/01 06:41:32;;;;;;;;;;;17.70;42.40;;;;;;8268987;28;19933;-48
2022/01/01 06:45:33;;;;;;;;;;;17.70;42.40;;;;;;8268947;28;19922;-47
2022/01/01 06:49:33;;;;;;;;;;;17.70;43.00;;;;;;8268634;28;19972;-46
2022/01/01 06:53:34;;;;;;;;;;;17.70;42.40;;;;;;8268486;28;19948;-46
2022/01/01 06:57:34;;;;;;;;;;;17.70;42.40;;;;;;8268483;28;19961;-47
2022/01/01 07:01:35;;;;;;;;;;;17.70;42.40;;;;;;8267847;28;19922;-47
2022/01/01 07:05:36;;;;;;;;;;;17.70;42.30;;;;;;8268046;28;20053;-49
2022/01/01 07:09:36;;;;;;;;;;;17.70;42.40;;;;;;8267978;28;19918;-47
2022/01/01 07:13:37;;;;;;;;;;;17.70;42.40;;;;;;8267496;28;19937;-49
2022/01/01 07:17:37;;;;;;;;;;;17.70;42.40;;;;;;8267577;28;19925;-47
2022/01/01 07:21:38;;;;;;;;;;;17.70;42.40;;;;;;8267713;28;19959;-47
2022/01/01 07:25:38;;;;;;;;;;;17.70;42.40;;;;;;8266943;28;20008;-49
2022/01/01 07:29:39;;;;;;;;;;;17.70;42.50;;;;;;8267516;28;19971;-48
2022/01/01 07:33:39;;;;;;;;;;;17.70;42.50;;;;;;8267219;28;19922;-46
2022/01/01 07:37:40;;;;;;;;;;;17.60;42.40;;;;;;8266570;28;20319;-48
2022/01/01 07:41:42;;;;;;;;;;;17.70;42.40;;;;;;8266281;28;19922;-50
2022/01/01 07:45:43;;;;;;;;;;;17.70;42.30;;;;;;8267048;28;19929;-48
2022/01/01 07:49:43;;;;;;;;;;;17.70;42.40;;;;;;8266127;28;20003;-48
2022/01/01 07:53:44;;;;;;;;;;;17.70;42.40;;;;;;8266536;28;20280;-47
2022/01/01 07:57:44;;;;;;;;;;;17.70;42.40;;;;;;8266177;28;20000;-48
2022/01/01 08:01:44;;;;;;;;;;;17.70;42.30;;;;;;8266028;28;19925;-47
2022/01/01 08:05:45;;;;;;;;;;;17.60;42.30;;;;;;8266425;28;19945;-48
2022/01/01 08:09:45;;;;;;;;;;;17.70;42.30;;;;;;8265544;28;19918;-48
2022/01/01 08:13:46;;;;;;;;;;;17.60;42.30;;;;;;8265605;28;19918;-48
2022/01/01 08:17:46;;;;;;;;;;;17.60;42.30;;;;;;8266060;28;20025;-48
2022/01/01 08:21:47;;;;;;;;;;;17.60;42.30;;;;;;8265554;28;20088;-47
2022/01/01 08:25:47;;;;;;;;;;;17.60;42.80;;;;;;8265158;28;19918;-48
2022/01/01 08:29:48;;;;;;;;;;;17.60;42.20;;;;;;8265298;28;19945;-48
2022/01/01 08:33:48;;;;;;;;;;;17.60;42.30;;;;;;8265613;28;19918;-46
2022/01/01 08:37:49;;;;;;;;;;;17.60;42.30;;;;;;8265297;28;19914;-48
2022/01/01 08:41:49;;;;;;;;;;;17.60;42.30;;;;;;8265250;28;19933;-48
2022/01/01 08:45:49;;;;;;;;;;;17.60;42.20;;;;;;8265469;28;19953;-47
2022/01/01 08:49:52;;;;;;;;;;;17.60;42.20;;;;;;8264603;28;19918;-47
2022/01/01 08:53:52;;;;;;;;;;;17.60;42.20;;;;;;8264671;28;19972;-46
2022/01/01 08:57:53;;;;;;;;;;;17.60;42.20;;;;;;8265247;28;19914;-47
2022/01/01 09:01:53;;;;;;;;;;;17.60;42.20;;;;;;8264446;28;20331;-47
2022/01/01 09:05:54;;;;;;;;;;;17.60;42.70;;;;;;8264926;28;20290;-47
2022/01/01 09:09:58;;;;;;;;;;;17.60;42.20;;;;;;8264927;28;20017;-46
2022/01/01 09:13:58;;;;;;;;;;;17.60;42.20;;;;;;8264328;28;19922;-47
2022/01/01 09:17:58;;;;;;;;;;;17.60;42.20;;;;;;8265092;28;19918;-49
2022/01/01 09:21:59;;;;;;;;;;;17.60;42.10;;;;;;8264543;28;19926;-48
2022/01/01 09:26:02;;;;;;;;;;;17.60;42.10;;;;;;8264143;28;19918;-47
2022/01/01 09:30:03;;;;;;;;;;;17.60;42.10;;;;;;8264447;28;19924;-47
2022/01/01 09:34:05;;;;;;;;;;;17.60;42.10;;;;;;8264510;28;20371;-47
2022/01/01 09:38:05;;;;;;;;;;;17.60;42.10;;;;;;8264629;28;19953;-46
2022/01/01 09:42:06;;;;;;;;;;;17.60;42.10;;;;;;8264576;28;20005;-45
2022/01/01 09:46:08;;;;;;;;;;;17.60;42.10;;;;;;8264626;28;19922;-46
2022/01/01 09:50:08;;;;;;;;;;;17.60;42.20;;;;;;8263774;28;19929;-46
2022/01/01 09:54:10;;;;;;;;;;;17.60;42.20;;;;;;8264189;28;20315;-47
2022/01/01 09:58:10;;;;;;;;;;;17.60;42.00;;;;;;8264197;28;19940;-47
2022/01/01 10:02:11;;;;;;;;;;;17.60;42.10;;;;;;8263371;28;19926;-48
2022/01/01 10:06:15;;;;;;;;;;;17.60;42.10;;;;;;8268681;28;19918;-46
2022/01/01 10:10:18;;;;;;;;;;;17.60;42.10;;;;;;8269615;28;19945;-48
2022/01/01 10:14:18;;;;;;;;;;;17.60;42.20;;;;;;8269696;28;19943;-47
2022/01/01 10:18:23;;;;;;;;;;;17.70;42.10;;;;;;8269798;28;19918;-46
2022/01/01 10:22:24;;;;;;;;;;;17.60;42.10;;;;;;8268759;28;19953;-49
2022/01/01 10:30:50;;;;;;;;;;;17.70;42.20;;;;;;8273091;28;19937;-47
2022/01/01 10:34:51;;;;;;;;;;;17.60;42.00;;;;;;8268525;28;19918;-48
2022/01/01 10:38:51;;;;;;;;;;;17.70;42.10;;;;;;8269238;28;19961;-48
2022/01/01 10:42:52;;;;;;;;;;;17.60;42.10;;;;;;8269241;28;19922;-47
2022/01/01 10:46:52;;;;;;;;;;;17.60;42.20;;;;;;8268588;28;20412;-46
2022/01/01 10:50:54;;;;;;;;;;;17.60;42.20;;;;;;8268509;28;20422;-46
2022/01/01 10:54:54;;;;;;;;;;;17.60;42.10;;;;;;8268356;28;19972;-48
2022/01/01 10:58:59;;;;;;;;;;;17.70;42.20;;;;;;8267809;28;20081;-48
2022/01/01 11:03:00;;;;;;;;;;;17.60;42.10;;;;;;8267916;28;20367;-47
2022/01/01 11:07:01;;;;;;;;;;;17.60;42.00;;;;;;8268116;28;19964;-48
2022/01/01 11:11:02;;;;;;;;;;;17.70;42.50;;;;;;8267397;28;19952;-47
2022/01/01 11:15:04;;;;;;;;;;;17.70;42.40;;;;;;8267428;28;19917;-47
2022/01/01 11:19:04;;;;;;;;;;;17.70;42.50;;;;;;8267813;28;20008;-50
2022/01/01 11:23:08;;;;;;;;;;;17.80;42.70;;;;;;8267205;28;19929;-48
2022/01/01 11:27:08;;;;;;;;;;;17.80;42.40;;;;;;8267685;28;19921;-48
2022/01/01 11:31:11;;;;;;;;;;;17.80;42.40;;;;;;8267409;28;19922;-48
2022/01/01 11:35:17;;;;;;;;;;;17.80;42.30;;;;;;8266646;28;20004;-48
2022/01/01 11:39:19;;;;;;;;;;;17.80;42.30;;;;;;8266880;28;19914;-47
2022/01/01 11:43:38;;;;;;;;;;;17.90;42.40;;;;;;8266540;28;19929;-49
2022/01/01 11:47:38;;;;;;;;;;;17.90;42.40;;;;;;8267169;28;19930;-49
2022/01/01 11:51:52;;;;;;;;;;;17.90;42.40;;;;;;8266661;28;20282;-47
2022/01/01 11:56:12;;;;;;;;;;;17.90;42.40;;;;;;8265958;28;19949;-48
2022/01/01 12:00:13;;;;;;;;;;;17.90;42.30;;;;;;8266458;28;20376;-47
2022/01/01 12:04:33;;;;;;;;;;;17.90;42.30;;;;;;8266497;28;20053;-48
2022/01/01 12:08:40;;;;;;;;;;;17.90;42.40;;;;;;8266225;28;19940;-52
2022/01/01 12:12:40;;;;;;;;;;;17.90;42.40;;;;;;8266155;28;20001;-48
2022/01/01 12:16:47;;;;;;;;;;;17.90;42.30;;;;;;8265737;28;19925;-50
2022/01/01 12:20:56;;;;;;;;;;;17.90;42.30;;;;;;8266088;28;19922;-49
2022/01/01 12:24:57;;;;;;;;;;;17.90;42.40;;;;;;8269376;28;19932;-48
2022/01/01 12:29:06;;;;;;;;;;;17.90;42.40;;;;;;8264869;28;19918;-47
2022/01/01 12:33:07;;;;;;;;;;;17.90;42.40;;;;;;8265960;28;19918;-48
2022/01/01 12:37:12;;;;;;;;;;;17.90;42.30;;;;;;8265360;28;19960;-48
2022/01/01 12:41:14;;;;;;;;;;;17.90;42.30;;;;;;8264757;28;20375;-47
2022/01/01 12:45:15;;;;;;;;;;;17.90;42.40;;;;;;8265764;28;20379;-50
2022/01/01 12:49:16;;;;;;;;;;;17.80;42.30;;;;;;8265437;28;19914;-50
2022/01/01 12:53:17;;;;;;;;;;;17.80;42.30;;;;;;8264664;28;19918;-49
2022/01/01 12:57:18;;;;;;;;;;;17.80;42.30;;;;;;8265021;28;20391;-49
2022/01/01 13:01:20;;;;;;;;;;;17.90;42.30;;;;;;8264470;28;19941;-47
2022/01/01 13:05:22;;;;;;;;;;;17.90;42.30;;;;;;8264685;28;19925;-49
2022/01/01 13:09:24;;;;;;;;;;;17.90;42.20;;;;;;8265083;28;19977;-53
2022/01/01 13:13:25;;;;;;;;;;;17.90;42.30;;;;;;8264489;28;19924;-53
2022/01/01 13:17:25;;;;;;;;;;;17.80;42.20;;;;;;8264816;28;19921;-49
2022/01/01 13:21:26;;;;;;;;;;;17.80;42.20;;;;;;8264653;28;19926;-48
2022/01/01 13:25:27;;;;;;;;;;;17.80;42.20;;;;;;8264331;28;19918;-48
2022/01/01 13:29:27;;;;;;;;;;;17.90;42.30;;;;;;8264684;28;19914;-48
2022/01/01 13:33:29;;;;;;;;;;;17.80;42.20;;;;;;8264782;28;19945;-48
2022/01/01 13:37:29;;;;;;;;;;;17.90;42.20;;;;;;8264708;28;19925;-48
2022/01/01 13:41:37;;;;;;;;;;;17.80;42.20;;;;;;8270540;28;20021;-49
2022/01/01 13:45:37;;;;;;;;;;;17.90;42.30;;;;;;8270687;28;19975;-50
2022/01/01 13:49:42;;;;;;;;;;;17.90;42.20;;;;;;8270217;28;19914;-49
2022/01/01 13:53:42;;;;;;;;;;;17.80;42.30;;;;;;8270301;28;19918;-51
2022/01/01 13:57:51;;;;;;;;;;;17.80;42.30;;;;;;8270276;28;19918;-49
2022/01/01 14:01:51;;;;;;;;;;;17.80;42.30;;;;;;8269465;28;19926;-48
2022/01/01 14:05:52;;;;;;;;;;;17.90;42.40;;;;;;8269928;28;20485;-48
2022/01/01 14:09:56;;;;;;;;;;;17.90;42.30;;;;;;8269122;28;19968;-49
2022/01/01 14:14:05;;;;;;;;;;;17.80;42.40;;;;;;8269260;28;19918;-47
2022/01/01 14:18:09;;;;;;;;;;;17.80;42.40;;;;;;8269479;28;19917;-48
2022/01/01 14:22:12;;;;;;;;;;;17.80;42.40;;;;;;8269240;28;19926;-47
2022/01/01 14:26:14;;;;;;;;;;;17.80;42.40;;;;;;8268733;28;19918;-49
2022/01/01 14:30:15;;;;;;;;;;;17.80;42.40;;;;;;8269594;28;20330;-47
2022/01/01 14:34:16;;;;;;;;;;;17.80;42.50;;;;;;8269132;28;19944;-48
2022/01/01 14:38:16;;;;;;;;;;;17.80;42.40;;;;;;8268712;28;20009;-49
2022/01/01 14:42:17;;;;;;;;;;;17.80;42.40;;;;;;8268724;28;19934;-48
2022/01/01 14:46:19;;;;;;;;;;;17.80;42.40;;;;;;8268369;28;19925;-49
2022/01/01 14:50:19;;;;;;;;;;;17.80;42.50;;;;;;8268517;28;20425;-50
2022/01/01 14:54:20;;;;;;;;;;;17.80;42.50;;;;;;8268576;28;19918;-48
2022/01/01 14:58:33;;;;;;;;;;;17.80;42.50;;;;;;8267929;28;19917;-48
2022/01/01 15:02:34;;;;;;;;;;;17.80;42.60;;;;;;8268313;28;19933;-49
2022/01/01 15:06:34;;;;;;;;;;;17.80;42.50;;;;;;8268016;28;19918;-49
2022/01/01 15:10:35;;;;;;;;;;;17.80;42.50;;;;;;8267539;28;19914;-50
2022/01/01 15:14:37;;;;;;;;;;;17.80;42.60;;;;;;8267973;28;19914;-47
2022/01/01 15:18:38;;;;;;;;;;;17.80;42.60;;;;;;8267652;28;19918;-49
2022/01/01 15:22:41;;;;;;;;;;;17.80;42.60;;;;;;8266988;28;19933;-48
2022/01/01 15:26:44;;;;;;;;;;;17.80;42.60;;;;;;8267469;28;19918;-48
2022/01/01 15:30:53;;;;;;;;;;;17.80;42.70;;;;;;8267296;28;19945;-51
2022/01/01 15:39:18;;;;;;;;;;;17.80;42.70;;;;;;8267364;28;19925;-49
2022/01/01 15:43:18;;;;;;;;;;;17.80;42.60;;;;;;8266431;28;19936;-47
2022/01/01 15:47:19;;;;;;;;;;;17.80;42.60;;;;;;8266934;28;19937;-48
2022/01/01 15:51:20;;;;;;;;;;;17.80;42.60;;;;;;8266882;28;19914;-49
2022/01/01 15:55:21;;;;;;;;;;;17.70;42.60;;;;;;8266523;28;19918;-47
2022/01/01 15:59:24;;;;;;;;;;;17.70;42.50;;;;;;8266720;28;19918;-52
2022/01/01 16:03:27;;;;;;;;;;;17.80;42.60;;;;;;8265385;28;19926;-49
2022/01/01 16:07:27;;;;;;;;;;;17.70;42.60;;;;;;8265768;28;19918;-51
2022/01/01 16:11:29;;;;;;;;;;;17.80;42.60;;;;;;8266012;28;20383;-47
2022/01/01 16:15:30;;;;;;;;;;;17.70;42.60;;;;;;8266232;28;19945;-48
2022/01/01 16:19:30;;;;;;;;;;;17.70;42.50;;;;;;8265396;28;19926;-49
2022/01/01 16:23:32;;;;;;;;;;;17.70;42.50;;;;;;8265542;28;19948;-48
2022/01/01 16:27:32;;;;;;;;;;;17.70;42.50;;;;;;8265725;28;19969;-49
2022/01/01 16:31:33;;;;;;;;;;;17.70;42.50;;;;;;8265241;28;19925;-48
2022/01/01 16:35:36;;;;;;;;;;;17.70;42.50;;;;;;8265923;28;19921;-49
2022/01/01 16:39:36;;;;;;;;;;;17.70;42.50;;;;;;8265542;28;19918;-48
2022/01/01 16:43:44;;;;;;;;;;;17.70;42.60;;;;;;8264858;28;19941;-50
2022/01/01 16:47:53;;;;;;;;;;;17.70;42.50;;;;;;8265554;28;19921;-49
2022/01/01 16:51:59;;;;;;;;;;;17.70;42.50;;;;;;8265154;28;19921;-48
2022/01/01 16:56:00;;;;;;;;;;;17.70;42.50;;;;;;8264899;28;19961;-48
2022/01/01 17:00:06;;;;;;;;;;;17.70;42.50;;;;;;8264944;28;19918;-48
2022/01/01 17:04:11;;;;;;;;;;;17.70;42.50;;;;;;8264413;28;19953;-50
2022/01/01 17:08:12;;;;;;;;;;;17.70;42.50;;;;;;8264596;28;19918;-48
2022/01/01 17:12:12;;;;;;;;;;;17.70;42.40;;;;;;8264834;28;19921;-47
2022/01/01 17:16:33;;;;;;;;;;;17.70;42.40;;;;;;8271543;28;19945;-46
2022/01/01 17:20:46;;;;;;;;;;;17.70;42.40;;;;;;8271213;28;19918;-46
2022/01/01 17:24:49;;;;;;;;;;;17.70;42.40;;;;;;8275303;28;19926;-47
2022/01/01 17:28:56;;;;;;;;;;;17.60;42.30;;;;;;8270521;28;19918;-47
2022/01/01 17:33:07;;;;;;;;;;;17.70;42.40;;;;;;8277387;28;19949;-48
2022/01/01 17:37:11;;;;;;;;;;;17.70;42.40;;;;;;8271427;28;19925;-48
2022/01/01 17:41:12;;;;;;;;;;;17.60;42.40;;;;;;8270436;28;19914;-48
2022/01/01 17:45:15;;;;;;;;;;;17.60;42.30;;;;;;8270163;28;20272;-48
2022/01/01 17:49:20;;;;;;;;;;;17.60;42.30;;;;;;8270546;28;19925;-48
2022/01/01 17:53:21;;;;;;;;;;;17.60;42.30;;;;;;8270240;28;19980;-49
2022/01/01 17:57:22;;;;;;;;;;;17.60;42.20;;;;;;8270657;28;19918;-48
2022/01/01 18:01:23;;;;;;;;;;;17.60;42.20;;;;;;8269701;28;19914;-51
2022/01/01 18:05:25;;;;;;;;;;;17.60;42.30;;;;;;8269986;28;20421;-48
2022/01/01 18:09:27;;;;;;;;;;;17.60;42.30;;;;;;8269751;28;19929;-47
2022/01/01 18:13:40;;;;;;;;;;;17.60;42.20;;;;;;8269321;28;19918;-48
2022/01/01 18:17:41;;;;;;;;;;;17.60;42.30;;;;;;8269684;28;19925;-51
2022/01/01 18:21:44;;;;;;;;;;;17.60;42.30;;;;;;8269790;28;19976;-47
2022/01/01 18:25:47;;;;;;;;;;;17.60;42.20;;;;;;8267973;28;19922;-49
2022/01/01 18:29:48;;;;;;;;;;;17.60;42.30;;;;;;8269311;28;19976;-48
2022/01/01 18:33:49;;;;;;;;;;;17.60;42.20;;;;;;8269170;28;19922;-47
2022/01/01 18:37:50;;;;;;;;;;;17.60;42.20;;;;;;8268761;28;19946;-48
2022/01/01 18:41:51;;;;;;;;;;;17.60;42.20;;;;;;8269204;28;19926;-49
2022/01/01 18:45:52;;;;;;;;;;;17.60;42.20;;;;;;8269248;28;19976;-47
2022/01/01 18:49:54;;;;;;;;;;;17.50;42.20;;;;;;8268407;28;20009;-49
2022/01/01 18:54:08;;;;;;;;;;;17.60;42.20;;;;;;8268777;28;20373;-47
2022/01/01 18:58:12;;;;;;;;;;;17.60;42.20;;;;;;8268459;28;19944;-49
2022/01/01 19:02:13;;;;;;;;;;;17.60;42.10;;;;;;8267690;28;20361;-48
2022/01/01 19:06:13;;;;;;;;;;;17.50;42.10;;;;;;8268568;28;19921;-48
2022/01/01 19:10:15;;;;;;;;;;;17.50;42.10;;;;;;8268031;28;19961;-49
2022/01/01 19:14:18;;;;;;;;;;;17.60;42.10;;;;;;8267451;28;19918;-49
2022/01/01 19:18:19;;;;;;;;;;;17.60;42.20;;;;;;8267715;28;19929;-48
2022/01/01 19:22:20;;;;;;;;;;;17.50;42.10;;;;;;8267141;28;19933;-48
2022/01/01 19:26:22;;;;;;;;;;;17.50;42.10;;;;;;8267536;28;19945;-49
2022/01/01 19:30:22;;;;;;;;;;;17.50;42.00;;;;;;8267663;28;19944;-48
2022/01/01 19:34:27;;;;;;;;;;;17.50;42.00;;;;;;8266801;28;20269;-48
2022/01/01 19:38:27;;;;;;;;;;;17.50;42.10;;;;;;8267322;28;19918;-47
2022/01/01 19:42:34;;;;;;;;;;;17.50;42.10;;;;;;8267238;28;19929;-49
2022/01/01 19:46:52;;;;;;;;;;;17.50;42.00;;;;;;8266713;28;19922;-51
2022/01/01 19:50:53;;;;;;;;;;;17.50;42.00;;;;;;8266848;28;19918;-48
2022/01/01 19:54:53;;;;;;;;;;;17.50;42.00;;;;;;8266803;28;19918;-49
2022/01/01 19:58:54;;;;;;;;;;;17.50;42.00;;;;;;8277631;28;19918;-48
2022/01/01 20:02:54;;;;;;;;;;;17.50;42.00;;;;;;8298732;28;19925;-48
2022/01/01 20:06:54;;;;;;;;;;;17.50;42.00;;;;;;8298193;28;20047;-48
2022/01/01 20:10:55;;;;;;;;;;;17.50;42.00;;;;;;8298215;28;19918;-48
2022/01/01 20:14:55;;;;;;;;;;;17.50;42.00;;;;;;8298525;28;19917;-49
2022/01/01 20:18:56;;;;;;;;;;;17.50;42.00;;;;;;8298383;28;20290;-48
2022/01/01 20:22:57;;;;;;;;;;;17.40;42.00;;;;;;8297824;28;19996;-49
2022/01/01 20:26:57;;;;;;;;;;;17.50;42.00;;;;;;8298617;28;19967;-48
2022/01/01 20:30:58;;;;;;;;;;;17.50;42.00;;;;;;8298087;28;19972;-48
2022/01/01 20:34:58;;;;;;;;;;;17.40;41.90;;;;;;8297543;28;19918;-48
2022/01/01 20:38:59;;;;;;;;;;;17.50;42.00;;;;;;8297902;28;19925;-47
2022/01/01 20:42:59;;;;;;;;;;;17.40;41.90;;;;;;8297842;28;19929;-47
2022/01/01 20:47:00;;;;;;;;;;;17.40;41.90;;;;;;8297502;28;20302;-48
2022/01/01 20:51:00;;;;;;;;;;;17.40;41.90;;;;;;8297479;28;19917;-48
2022/01/01 20:55:01;;;;;;;;;;;17.40;41.90;;;;;;8297520;28;19968;-51
2022/01/01 20:59:01;;;;;;;;;;;17.40;41.90;;;;;;8296991;28;19917;-47
2022/01/01 21:03:05;;;;;;;;;;;17.40;41.90;;;;;;8297618;28;19929;-48
2022/01/01 21:07:06;;;;;;;;;;;17.40;41.90;;;;;;8297579;28;19917;-48
2022/01/01 21:11:07;;;;;;;;;;;17.40;41.90;;;;;;8296828;28;19963;-49
2022/01/01 21:15:08;;;;;;;;;;;17.40;41.80;;;;;;8297208;28;19944;-49
2022/01/01 21:19:08;;;;;;;;;;;17.40;41.80;;;;;;8297282;28;19924;-49
2022/01/01 21:23:08;;;;;;;;;;;17.40;41.70;;;;;;8296739;28;19936;-49
2022/01/01 21:27:09;;;;;;;;;;;17.40;41.70;;;;;;8297272;28;19925;-48
2022/01/01 21:31:09;;;;;;;;;;;17.40;41.70;;;;;;8297158;28;19924;-48
2022/01/01 21:35:10;;;;;;;;;;;17.40;41.60;;;;;;8296488;28;20374;-50
2022/01/01 21:39:11;;;;;;;;;;;17.40;41.60;;;;;;8297103;28;19914;-50
2022/01/01 21:43:12;;;;;;;;;;;17.40;41.60;;;;;;8297026;28;19926;-49
2022/01/01 21:47:13;;;;;;;;;;;17.40;41.60;;;;;;8296686;28;20371;-50
2022/01/01 21:51:18;;;;;;;;;;;17.30;41.60;;;;;;8296662;28;19925;-48
2022/01/01 21:55:18;;;;;;;;;;;17.30;41.60;;;;;;8296390;28;20362;-48
2022/01/01 21:59:19;;;;;;;;;;;17.30;41.60;;;;;;8297043;28;19925;-48
2022/01/01 22:03:20;;;;;;;;;;;17.30;41.60;;;;;;8302686;28;19933;-47
2022/01/01 22:07:22;;;;;;;;;;;17.30;41.60;;;;;;8302272;28;19917;-47
2022/01/01 22:11:23;;;;;;;;;;;17.30;41.60;;;;;;8302331;28;20298;-48
2022/01/01 22:15:23;;;;;;;;;;;17.30;41.70;;;;;;8302224;28;19921;-47
2022/01/01 22:19:24;;;;;;;;;;;17.30;41.70;;;;;;8301624;28;20354;-48
2022/01/01 22:23:24;;;;;;;;;;;17.30;41.70;;;;;;8302471;28;19937;-49
2022/01/01 22:27:25;;;;;;;;;;;17.30;41.70;;;;;;8301843;28;20001;-48
2022/01/01 22:31:25;;;;;;;;;;;17.30;41.70;;;;;;8301193;28;19918;-48
2022/01/01 22:35:25;;;;;;;;;;;17.40;41.70;;;;;;8301598;28;20401;-48
2022/01/01 22:39:26;;;;;;;;;;;17.40;41.60;;;;;;8301434;28;20401;-48
2022/01/01 22:43:27;;;;;;;;;;;17.40;41.60;;;;;;8301153;28;19932;-50
2022/01/01 22:47:27;;;;;;;;;;;17.40;41.60;;;;;;8301655;28;20007;-48
2022/01/01 22:51:28;;;;;;;;;;;17.40;41.60;;;;;;8301069;28;20008;-51
2022/01/01 22:55:28;;;;;;;;;;;17.40;41.60;;;;;;8300458;28;20004;-48
2022/01/01 22:59:29;;;;;;;;;;;17.40;41.50;;;;;;8300913;28;19922;-48
2022/01/01 23:03:30;;;;;;;;;;;17.40;41.50;;;;;;8300305;28;19930;-48
2022/01/01 23:07:30;;;;;;;;;;;17.40;41.50;;;;;;8300136;28;20014;-48
2022/01/01 23:11:31;;;;;;;;;;;17.40;41.50;;;;;;8299327;28;19917;-47
2022/01/01 23:15:33;;;;;;;;;;;17.40;41.40;;;;;;8300557;28;20355;-49
2022/01/01 23:19:34;;;;;;;;;;;17.40;41.40;;;;;;8299793;28;19922;-47
2022/01/01 23:23:37;;;;;;;;;;;17.40;41.40;;;;;;8300399;28;19949;-48
2022/01/01 23:27:38;;;;;;;;;;;17.40;41.40;;;;;;8299959;28;19944;-49
2022/01/01 23:31:41;;;;;;;;;;;17.40;41.50;;;;;;8299539;28;20353;-49
2022/01/01 23:35:48;;;;;;;;;;;17.40;42.00;;;;;;8299915;28;19918;-48
2022/01/01 23:39:49;;;;;;;;;;;17.30;41.40;;;;;;8304103;28;19917;-49